sensor_id;sensor_type;location;lat;lon;timestamp;P1;durP1;ratioP1;P2;durP2;ratioP2
58685;SDS011;44465;53.206;-6.106;2024-02-16T00:03:22;6.93;;;3.33;;
58685;SDS011;44465;53.206;-6.106;2024-02-16T00:05:47;8.55;;;3.60;;
58685;SDS011;44465;53.206;-6.106;2024-02-16T00:08:15;7.72;;;3.47;;
58685;SDS011;44465;53.206;-6.106;2024-02-16T00:10:41;6.97;;;3.45;;
58685;SDS011;44465;53.206;-6.106;2024-02-16T00:13:07;7.40;;;3.22;;
58685;SDS011;44465;53.206;-6.106;2024-02-16T00:15:33;7.35;;;3.50;;
58685;SDS011;44465;53.206;-6.106;2024-02-16T00:17:59;7.00;;;3.42;;
58685;SDS011;44465;53.206;-6.106;2024-02-16T00:20:25;5.65;;;3.28;;
58685;SDS011;44465;53.206;-6.106;2024-02-16T00:22:51;9.52;;;3.72;;
58685;SDS011;44465;53.206;-6.106;2024-02-16T00:25:16;7.05;;;3.20;;
58685;SDS011;44465;53.206;-6.106;2024-02-16T00:27:43;13.10;;;3.70;;
58685;SDS011;44465;53.206;-6.106;2024-02-16T00:30:09;6.10;;;3.30;;
58685;SDS011;44465;53.206;-6.106;2024-02-16T00:32:37;7.03;;;3.40;;
58685;SDS011;44465;53.206;-6.106;2024-02-16T00:35:03;7.70;;;3.53;;
58685;SDS011;44465;53.206;-6.106;2024-02-16T00:37:29;4.80;;;2.97;;
58685;SDS011;44465;53.206;-6.106;2024-02-16T00:39:55;8.27;;;3.13;;
58685;SDS011;44465;53.206;-6.106;2024-02-16T00:42:21;6.05;;;2.80;;
58685;SDS011;44465;53.206;-6.106;2024-02-16T00:47:14;5.13;;;2.50;;
58685;SDS011;44465;53.206;-6.106;2024-02-16T00:49:41;7.43;;;3.17;;
58685;SDS011;44465;53.206;-6.106;2024-02-16T00:52:10;4.60;;;2.72;;
58685;SDS011;44465;53.206;-6.106;2024-02-16T00:54:36;5.60;;;2.90;;
58685;SDS011;44465;53.206;-6.106;2024-02-16T00:57:02;5.13;;;2.63;;
58685;SDS011;44465;53.206;-6.106;2024-02-16T00:59:28;6.88;;;2.72;;
58685;SDS011;44465;53.206;-6.106;2024-02-16T01:01:54;4.00;;;2.40;;
58685;SDS011;44465;53.206;-6.106;2024-02-16T01:04:20;4.93;;;2.75;;
58685;SDS011;44465;53.206;-6.106;2024-02-16T01:06:45;4.50;;;2.58;;
58685;SDS011;44465;53.206;-6.106;2024-02-16T01:09:11;4.43;;;2.88;;
58685;SDS011;44465;53.206;-6.106;2024-02-16T01:11:39;6.80;;;2.60;;
58685;SDS011;44465;53.206;-6.106;2024-02-16T01:14:06;4.97;;;2.80;;
58685;SDS011;44465;53.206;-6.106;2024-02-16T01:16:32;5.25;;;2.65;;
58685;SDS011;44465;53.206;-6.106;2024-02-16T01:18:58;3.58;;;2.60;;
58685;SDS011;44465;53.206;-6.106;2024-02-16T01:21:23;3.85;;;2.45;;
58685;SDS011;44465;53.206;-6.106;2024-02-16T01:23:49;2.72;;;2.20;;
58685;SDS011;44465;53.206;-6.106;2024-02-16T01:26:15;5.95;;;2.75;;
58685;SDS011;44465;53.206;-6.106;2024-02-16T01:28:40;4.45;;;2.33;;
58685;SDS011;44465;53.206;-6.106;2024-02-16T01:31:06;6.50;;;2.20;;
58685;SDS011;44465;53.206;-6.106;2024-02-16T01:33:35;2.90;;;2.10;;
58685;SDS011;44465;53.206;-6.106;2024-02-16T01:36:01;4.43;;;2.30;;
58685;SDS011;44465;53.206;-6.106;2024-02-16T01:38:28;3.85;;;2.33;;
58685;SDS011;44465;53.206;-6.106;2024-02-16T01:40:53;3.85;;;2.38;;
58685;SDS011;44465;53.206;-6.106;2024-02-16T01:43:22;4.25;;;2.55;;
58685;SDS011;44465;53.206;-6.106;2024-02-16T01:45:48;3.40;;;2.17;;
58685;SDS011;44465;53.206;-6.106;2024-02-16T01:48:16;3.03;;;2.10;;
58685;SDS011;44465;53.206;-6.106;2024-02-16T01:50:42;2.53;;;1.85;;
58685;SDS011;44465;53.206;-6.106;2024-02-16T01:53:09;2.30;;;1.77;;
58685;SDS011;44465;53.206;-6.106;2024-02-16T01:55:36;2.50;;;1.55;;
58685;SDS011;44465;53.206;-6.106;2024-02-16T01:58:02;3.72;;;1.88;;
58685;SDS011;44465;53.206;-6.106;2024-02-16T02:00:29;3.45;;;1.73;;
58685;SDS011;44465;53.206;-6.106;2024-02-16T02:02:55;2.58;;;1.52;;
58685;SDS011;44465;53.206;-6.106;2024-02-16T02:05:22;2.83;;;1.70;;
58685;SDS011;44465;53.206;-6.106;2024-02-16T02:07:48;3.33;;;2.28;;
58685;SDS011;44465;53.206;-6.106;2024-02-16T02:10:14;3.67;;;1.98;;
58685;SDS011;44465;53.206;-6.106;2024-02-16T02:12:40;1.75;;;1.60;;
58685;SDS011;44465;53.206;-6.106;2024-02-16T02:15:07;2.55;;;1.48;;
58685;SDS011;44465;53.206;-6.106;2024-02-16T02:17:34;3.38;;;1.80;;
58685;SDS011;44465;53.206;-6.106;2024-02-16T02:19:59;3.78;;;1.55;;
58685;SDS011;44465;53.206;-6.106;2024-02-16T02:22:25;3.97;;;1.73;;
58685;SDS011;44465;53.206;-6.106;2024-02-16T02:24:52;2.72;;;1.38;;
58685;SDS011;44465;53.206;-6.106;2024-02-16T02:27:20;4.05;;;1.70;;
58685;SDS011;44465;53.206;-6.106;2024-02-16T02:29:46;2.80;;;1.50;;
58685;SDS011;44465;53.206;-6.106;2024-02-16T02:32:12;2.33;;;1.65;;
58685;SDS011;44465;53.206;-6.106;2024-02-16T02:34:38;2.90;;;1.88;;
58685;SDS011;44465;53.206;-6.106;2024-02-16T02:37:05;2.78;;;1.30;;
58685;SDS011;44465;53.206;-6.106;2024-02-16T02:39:31;2.30;;;1.45;;
58685;SDS011;44465;53.206;-6.106;2024-02-16T02:41:58;1.92;;;1.13;;
58685;SDS011;44465;53.206;-6.106;2024-02-16T02:44:24;2.03;;;1.42;;
58685;SDS011;44465;53.206;-6.106;2024-02-16T02:46:50;1.77;;;1.15;;
58685;SDS011;44465;53.206;-6.106;2024-02-16T02:49:17;2.22;;;1.38;;
58685;SDS011;44465;53.206;-6.106;2024-02-16T02:51:43;3.00;;;0.98;;
58685;SDS011;44465;53.206;-6.106;2024-02-16T02:54:08;1.45;;;1.20;;
58685;SDS011;44465;53.206;-6.106;2024-02-16T02:56:34;1.38;;;1.13;;
58685;SDS011;44465;53.206;-6.106;2024-02-16T02:59:00;1.38;;;1.27;;
58685;SDS011;44465;53.206;-6.106;2024-02-16T03:01:25;2.38;;;2.10;;
58685;SDS011;44465;53.206;-6.106;2024-02-16T03:03:51;2.28;;;1.10;;
58685;SDS011;44465;53.206;-6.106;2024-02-16T03:06:17;1.25;;;1.15;;
58685;SDS011;44465;53.206;-6.106;2024-02-16T03:08:43;1.13;;;1.00;;
58685;SDS011;44465;53.206;-6.106;2024-02-16T03:11:09;1.42;;;1.20;;
58685;SDS011;44465;53.206;-6.106;2024-02-16T03:13:36;2.30;;;1.20;;
58685;SDS011;44465;53.206;-6.106;2024-02-16T03:16:01;2.40;;;0.90;;
58685;SDS011;44465;53.206;-6.106;2024-02-16T03:18:30;2.92;;;1.20;;
58685;SDS011;44465;53.206;-6.106;2024-02-16T03:20:56;2.17;;;1.00;;
58685;SDS011;44465;53.206;-6.106;2024-02-16T03:23:22;2.05;;;0.90;;
58685;SDS011;44465;53.206;-6.106;2024-02-16T03:25:48;2.40;;;1.50;;
58685;SDS011;44465;53.206;-6.106;2024-02-16T03:28:14;1.27;;;0.90;;
58685;SDS011;44465;53.206;-6.106;2024-02-16T03:30:40;2.22;;;1.00;;
58685;SDS011;44465;53.206;-6.106;2024-02-16T03:33:07;1.33;;;0.90;;
58685;SDS011;44465;53.206;-6.106;2024-02-16T03:35:34;1.90;;;1.10;;
58685;SDS011;44465;53.206;-6.106;2024-02-16T03:38:00;0.93;;;0.80;;
58685;SDS011;44465;53.206;-6.106;2024-02-16T03:40:25;2.28;;;1.13;;
58685;SDS011;44465;53.206;-6.106;2024-02-16T03:43:00;2.05;;;1.00;;
58685;SDS011;44465;53.206;-6.106;2024-02-16T03:45:25;1.70;;;0.90;;
58685;SDS011;44465;53.206;-6.106;2024-02-16T03:47:53;2.08;;;1.00;;
58685;SDS011;44465;53.206;-6.106;2024-02-16T03:50:19;1.90;;;1.20;;
58685;SDS011;44465;53.206;-6.106;2024-02-16T03:52:46;1.83;;;0.90;;
58685;SDS011;44465;53.206;-6.106;2024-02-16T03:55:11;2.00;;;1.10;;
58685;SDS011;44465;53.206;-6.106;2024-02-16T03:57:37;1.40;;;0.80;;
58685;SDS011;44465;53.206;-6.106;2024-02-16T04:00:03;1.92;;;1.02;;
58685;SDS011;44465;53.206;-6.106;2024-02-16T04:02:38;1.40;;;0.73;;
58685;SDS011;44465;53.206;-6.106;2024-02-16T04:05:04;1.23;;;0.80;;
58685;SDS011;44465;53.206;-6.106;2024-02-16T04:07:30;1.88;;;0.80;;
58685;SDS011;44465;53.206;-6.106;2024-02-16T04:09:56;1.33;;;0.80;;
58685;SDS011;44465;53.206;-6.106;2024-02-16T04:12:21;0.70;;;0.68;;
58685;SDS011;44465;53.206;-6.106;2024-02-16T04:14:47;1.25;;;0.73;;
58685;SDS011;44465;53.206;-6.106;2024-02-16T04:17:13;0.73;;;0.73;;
58685;SDS011;44465;53.206;-6.106;2024-02-16T04:19:39;0.90;;;0.63;;
58685;SDS011;44465;53.206;-6.106;2024-02-16T04:22:05;0.85;;;0.50;;
58685;SDS011;44465;53.206;-6.106;2024-02-16T04:24:30;1.15;;;0.50;;
58685;SDS011;44465;53.206;-6.106;2024-02-16T04:26:56;0.90;;;0.85;;
58685;SDS011;44465;53.206;-6.106;2024-02-16T04:29:21;1.25;;;0.70;;
58685;SDS011;44465;53.206;-6.106;2024-02-16T04:31:47;0.75;;;0.70;;
58685;SDS011;44465;53.206;-6.106;2024-02-16T04:34:13;0.82;;;0.70;;
58685;SDS011;44465;53.206;-6.106;2024-02-16T04:36:40;1.55;;;0.85;;
58685;SDS011;44465;53.206;-6.106;2024-02-16T04:39:06;1.23;;;0.85;;
58685;SDS011;44465;53.206;-6.106;2024-02-16T04:41:31;1.08;;;0.70;;
58685;SDS011;44465;53.206;-6.106;2024-02-16T04:43:57;0.82;;;0.70;;
58685;SDS011;44465;53.206;-6.106;2024-02-16T04:46:23;0.68;;;0.60;;
58685;SDS011;44465;53.206;-6.106;2024-02-16T04:48:49;1.02;;;0.60;;
58685;SDS011;44465;53.206;-6.106;2024-02-16T04:51:14;1.65;;;0.60;;
58685;SDS011;44465;53.206;-6.106;2024-02-16T04:53:40;0.93;;;0.70;;
58685;SDS011;44465;53.206;-6.106;2024-02-16T04:56:06;1.00;;;0.77;;
58685;SDS011;44465;53.206;-6.106;2024-02-16T04:58:32;0.88;;;0.55;;
58685;SDS011;44465;53.206;-6.106;2024-02-16T05:00:57;0.82;;;0.40;;
58685;SDS011;44465;53.206;-6.106;2024-02-16T05:03:23;1.38;;;0.70;;
58685;SDS011;44465;53.206;-6.106;2024-02-16T05:05:50;0.57;;;0.52;;
58685;SDS011;44465;53.206;-6.106;2024-02-16T05:08:16;0.80;;;0.45;;
58685;SDS011;44465;53.206;-6.106;2024-02-16T05:10:42;0.50;;;0.40;;
58685;SDS011;44465;53.206;-6.106;2024-02-16T05:13:07;0.60;;;0.60;;
58685;SDS011;44465;53.206;-6.106;2024-02-16T05:15:34;0.50;;;0.50;;
58685;SDS011;44465;53.206;-6.106;2024-02-16T05:17:59;0.73;;;0.40;;
58685;SDS011;44465;53.206;-6.106;2024-02-16T05:20:25;0.50;;;0.50;;
58685;SDS011;44465;53.206;-6.106;2024-02-16T05:22:50;1.15;;;0.60;;
58685;SDS011;44465;53.206;-6.106;2024-02-16T05:25:17;0.60;;;0.40;;
58685;SDS011;44465;53.206;-6.106;2024-02-16T05:27:43;1.10;;;0.50;;
58685;SDS011;44465;53.206;-6.106;2024-02-16T05:30:15;0.40;;;0.40;;
58685;SDS011;44465;53.206;-6.106;2024-02-16T05:32:41;1.70;;;0.57;;
58685;SDS011;44465;53.206;-6.106;2024-02-16T05:35:08;0.80;;;0.47;;
58685;SDS011;44465;53.206;-6.106;2024-02-16T05:37:40;0.40;;;0.40;;
58685;SDS011;44465;53.206;-6.106;2024-02-16T05:40:14;0.20;;;0.20;;
58685;SDS011;44465;53.206;-6.106;2024-02-16T05:42:54;0.40;;;0.35;;
58685;SDS011;44465;53.206;-6.106;2024-02-16T05:45:24;0.60;;;0.50;;
58685;SDS011;44465;53.206;-6.106;2024-02-16T05:47:51;0.55;;;0.40;;
58685;SDS011;44465;53.206;-6.106;2024-02-16T05:50:17;1.33;;;0.52;;
58685;SDS011;44465;53.206;-6.106;2024-02-16T05:52:46;1.08;;;0.40;;
58685;SDS011;44465;53.206;-6.106;2024-02-16T05:55:12;0.80;;;0.50;;
58685;SDS011;44465;53.206;-6.106;2024-02-16T05:57:38;0.40;;;0.40;;
58685;SDS011;44465;53.206;-6.106;2024-02-16T06:00:06;0.45;;;0.40;;
58685;SDS011;44465;53.206;-6.106;2024-02-16T06:02:33;0.52;;;0.40;;
58685;SDS011;44465;53.206;-6.106;2024-02-16T06:04:59;0.40;;;0.40;;
58685;SDS011;44465;53.206;-6.106;2024-02-16T06:07:25;0.30;;;0.20;;
58685;SDS011;44465;53.206;-6.106;2024-02-16T06:09:51;0.50;;;0.40;;
58685;SDS011;44465;53.206;-6.106;2024-02-16T06:12:17;0.45;;;0.40;;
58685;SDS011;44465;53.206;-6.106;2024-02-16T06:14:43;0.98;;;0.32;;
58685;SDS011;44465;53.206;-6.106;2024-02-16T06:17:08;0.30;;;0.30;;
58685;SDS011;44465;53.206;-6.106;2024-02-16T06:19:34;0.30;;;0.30;;
58685;SDS011;44465;53.206;-6.106;2024-02-16T06:22:00;0.93;;;0.35;;
58685;SDS011;44465;53.206;-6.106;2024-02-16T06:24:26;0.50;;;0.50;;
58685;SDS011;44465;53.206;-6.106;2024-02-16T06:26:51;0.43;;;0.43;;
58685;SDS011;44465;53.206;-6.106;2024-02-16T06:29:18;0.82;;;0.40;;
58685;SDS011;44465;53.206;-6.106;2024-02-16T06:31:46;0.65;;;0.40;;
58685;SDS011;44465;53.206;-6.106;2024-02-16T06:34:15;0.30;;;0.30;;
58685;SDS011;44465;53.206;-6.106;2024-02-16T06:36:44;0.30;;;0.30;;
58685;SDS011;44465;53.206;-6.106;2024-02-16T06:39:10;0.47;;;0.47;;
58685;SDS011;44465;53.206;-6.106;2024-02-16T06:41:37;1.95;;;0.60;;
58685;SDS011;44465;53.206;-6.106;2024-02-16T06:44:03;0.30;;;0.30;;
58685;SDS011;44465;53.206;-6.106;2024-02-16T06:46:29;0.28;;;0.22;;
58685;SDS011;44465;53.206;-6.106;2024-02-16T06:48:55;0.40;;;0.30;;
58685;SDS011;44465;53.206;-6.106;2024-02-16T06:51:22;0.20;;;0.20;;
58685;SDS011;44465;53.206;-6.106;2024-02-16T06:53:49;0.60;;;0.40;;
58685;SDS011;44465;53.206;-6.106;2024-02-16T06:56:14;0.20;;;0.20;;
58685;SDS011;44465;53.206;-6.106;2024-02-16T06:58:40;0.30;;;0.30;;
58685;SDS011;44465;53.206;-6.106;2024-02-16T07:01:06;0.45;;;0.30;;
58685;SDS011;44465;53.206;-6.106;2024-02-16T07:03:34;0.30;;;0.30;;
58685;SDS011;44465;53.206;-6.106;2024-02-16T07:08:28;0.82;;;0.38;;
58685;SDS011;44465;53.206;-6.106;2024-02-16T07:10:53;0.30;;;0.30;;
58685;SDS011;44465;53.206;-6.106;2024-02-16T07:13:20;0.63;;;0.20;;
58685;SDS011;44465;53.206;-6.106;2024-02-16T07:15:46;0.88;;;0.30;;
58685;SDS011;44465;53.206;-6.106;2024-02-16T07:18:11;0.63;;;0.38;;
58685;SDS011;44465;53.206;-6.106;2024-02-16T07:20:38;0.30;;;0.30;;
58685;SDS011;44465;53.206;-6.106;2024-02-16T07:23:03;0.35;;;0.35;;
58685;SDS011;44465;53.206;-6.106;2024-02-16T07:25:29;0.20;;;0.20;;
58685;SDS011;44465;53.206;-6.106;2024-02-16T07:27:55;0.50;;;0.50;;
58685;SDS011;44465;53.206;-6.106;2024-02-16T07:30:20;0.20;;;0.20;;
58685;SDS011;44465;53.206;-6.106;2024-02-16T07:32:49;0.30;;;0.30;;
58685;SDS011;44465;53.206;-6.106;2024-02-16T07:35:18;0.28;;;0.28;;
58685;SDS011;44465;53.206;-6.106;2024-02-16T07:37:44;0.10;;;0.10;;
58685;SDS011;44465;53.206;-6.106;2024-02-16T07:40:10;0.20;;;0.20;;
58685;SDS011;44465;53.206;-6.106;2024-02-16T07:42:39;0.20;;;0.20;;
58685;SDS011;44465;53.206;-6.106;2024-02-16T07:45:07;3.70;;;0.40;;
58685;SDS011;44465;53.206;-6.106;2024-02-16T07:47:34;7.80;;;0.73;;
58685;SDS011;44465;53.206;-6.106;2024-02-16T07:50:00;5.32;;;0.68;;
58685;SDS011;44465;53.206;-6.106;2024-02-16T07:52:26;3.30;;;0.63;;
58685;SDS011;44465;53.206;-6.106;2024-02-16T07:54:52;3.42;;;0.75;;
58685;SDS011;44465;53.206;-6.106;2024-02-16T07:57:17;4.35;;;0.68;;
58685;SDS011;44465;53.206;-6.106;2024-02-16T07:59:43;4.05;;;0.50;;
58685;SDS011;44465;53.206;-6.106;2024-02-16T08:02:09;3.17;;;0.52;;
58685;SDS011;44465;53.206;-6.106;2024-02-16T08:04:35;0.50;;;0.32;;
58685;SDS011;44465;53.206;-6.106;2024-02-16T08:07:00;0.50;;;0.50;;
58685;SDS011;44465;53.206;-6.106;2024-02-16T08:09:26;2.70;;;0.40;;
58685;SDS011;44465;53.206;-6.106;2024-02-16T08:11:52;0.65;;;0.50;;
58685;SDS011;44465;53.206;-6.106;2024-02-16T08:14:18;3.60;;;0.60;;
58685;SDS011;44465;53.206;-6.106;2024-02-16T08:16:43;2.05;;;0.50;;
58685;SDS011;44465;53.206;-6.106;2024-02-16T08:19:09;1.65;;;0.40;;
58685;SDS011;44465;53.206;-6.106;2024-02-16T08:21:35;0.82;;;0.20;;
58685;SDS011;44465;53.206;-6.106;2024-02-16T08:24:00;1.48;;;0.38;;
58685;SDS011;44465;53.206;-6.106;2024-02-16T08:26:26;1.58;;;0.52;;
58685;SDS011;44465;53.206;-6.106;2024-02-16T08:28:51;0.73;;;0.40;;
58685;SDS011;44465;53.206;-6.106;2024-02-16T08:31:17;0.20;;;0.20;;
58685;SDS011;44465;53.206;-6.106;2024-02-16T08:33:44;0.85;;;0.32;;
58685;SDS011;44465;53.206;-6.106;2024-02-16T08:36:10;0.95;;;0.65;;
58685;SDS011;44465;53.206;-6.106;2024-02-16T08:38:36;0.95;;;0.40;;
58685;SDS011;44465;53.206;-6.106;2024-02-16T08:41:02;0.30;;;0.25;;
58685;SDS011;44465;53.206;-6.106;2024-02-16T08:43:28;0.57;;;0.32;;
58685;SDS011;44465;53.206;-6.106;2024-02-16T08:45:54;0.45;;;0.45;;
58685;SDS011;44465;53.206;-6.106;2024-02-16T08:48:20;0.45;;;0.30;;
58685;SDS011;44465;53.206;-6.106;2024-02-16T08:50:45;0.65;;;0.30;;
58685;SDS011;44465;53.206;-6.106;2024-02-16T08:53:11;0.20;;;0.20;;
58685;SDS011;44465;53.206;-6.106;2024-02-16T08:55:36;2.10;;;0.47;;
58685;SDS011;44465;53.206;-6.106;2024-02-16T08:58:02;1.65;;;0.30;;
58685;SDS011;44465;53.206;-6.106;2024-02-16T09:00:27;0.60;;;0.57;;
58685;SDS011;44465;53.206;-6.106;2024-02-16T09:02:53;0.20;;;0.20;;
58685;SDS011;44465;53.206;-6.106;2024-02-16T09:05:19;1.40;;;0.30;;
58685;SDS011;44465;53.206;-6.106;2024-02-16T09:07:45;2.45;;;0.52;;
58685;SDS011;44465;53.206;-6.106;2024-02-16T09:10:12;0.22;;;0.20;;
58685;SDS011;44465;53.206;-6.106;2024-02-16T09:12:39;1.35;;;0.30;;
58685;SDS011;44465;53.206;-6.106;2024-02-16T09:15:05;0.80;;;0.20;;
58685;SDS011;44465;53.206;-6.106;2024-02-16T09:17:31;0.47;;;0.22;;
58685;SDS011;44465;53.206;-6.106;2024-02-16T09:19:57;0.50;;;0.50;;
58685;SDS011;44465;53.206;-6.106;2024-02-16T09:22:23;0.63;;;0.20;;
58685;SDS011;44465;53.206;-6.106;2024-02-16T09:24:48;0.30;;;0.20;;
58685;SDS011;44465;53.206;-6.106;2024-02-16T09:27:14;0.20;;;0.20;;
58685;SDS011;44465;53.206;-6.106;2024-02-16T09:29:39;0.57;;;0.20;;
58685;SDS011;44465;53.206;-6.106;2024-02-16T09:32:05;0.10;;;0.10;;
58685;SDS011;44465;53.206;-6.106;2024-02-16T09:34:31;0.20;;;0.20;;
58685;SDS011;44465;53.206;-6.106;2024-02-16T09:36:57;0.20;;;0.20;;
58685;SDS011;44465;53.206;-6.106;2024-02-16T09:39:22;0.50;;;0.20;;
58685;SDS011;44465;53.206;-6.106;2024-02-16T09:41:51;0.20;;;0.10;;
58685;SDS011;44465;53.206;-6.106;2024-02-16T09:44:20;0.10;;;0.10;;
58685;SDS011;44465;53.206;-6.106;2024-02-16T09:49:12;1.42;;;0.30;;
58685;SDS011;44465;53.206;-6.106;2024-02-16T09:51:38;0.63;;;0.20;;
58685;SDS011;44465;53.206;-6.106;2024-02-16T09:54:04;0.20;;;0.20;;
58685;SDS011;44465;53.206;-6.106;2024-02-16T09:56:30;0.35;;;0.30;;
58685;SDS011;44465;53.206;-6.106;2024-02-16T09:58:55;0.20;;;0.20;;
58685;SDS011;44465;53.206;-6.106;2024-02-16T10:01:22;0.20;;;0.20;;
58685;SDS011;44465;53.206;-6.106;2024-02-16T10:03:49;0.77;;;0.20;;
58685;SDS011;44465;53.206;-6.106;2024-02-16T10:06:15;0.95;;;0.30;;
58685;SDS011;44465;53.206;-6.106;2024-02-16T10:08:52;1.73;;;0.10;;
58685;SDS011;44465;53.206;-6.106;2024-02-16T10:11:19;0.20;;;0.20;;
58685;SDS011;44465;53.206;-6.106;2024-02-16T10:14:00;0.98;;;0.30;;
58685;SDS011;44465;53.206;-6.106;2024-02-16T10:16:27;0.22;;;0.20;;
58685;SDS011;44465;53.206;-6.106;2024-02-16T10:18:54;0.10;;;0.10;;
58685;SDS011;44465;53.206;-6.106;2024-02-16T10:21:28;1.10;;;0.30;;
58685;SDS011;44465;53.206;-6.106;2024-02-16T10:26:30;0.30;;;0.17;;
58685;SDS011;44465;53.206;-6.106;2024-02-16T10:28:56;0.10;;;0.10;;
58685;SDS011;44465;53.206;-6.106;2024-02-16T10:31:26;0.25;;;0.25;;
58685;SDS011;44465;53.206;-6.106;2024-02-16T10:34:02;0.20;;;0.20;;
58685;SDS011;44465;53.206;-6.106;2024-02-16T10:36:33;0.32;;;0.13;;
58685;SDS011;44465;53.206;-6.106;2024-02-16T10:38:59;0.20;;;0.20;;
58685;SDS011;44465;53.206;-6.106;2024-02-16T10:41:30;0.98;;;0.20;;
58685;SDS011;44465;53.206;-6.106;2024-02-16T10:43:59;0.20;;;0.20;;
58685;SDS011;44465;53.206;-6.106;2024-02-16T10:46:26;0.10;;;0.10;;
58685;SDS011;44465;53.206;-6.106;2024-02-16T10:48:52;0.28;;;0.10;;
58685;SDS011;44465;53.206;-6.106;2024-02-16T10:51:31;0.90;;;0.32;;
58685;SDS011;44465;53.206;-6.106;2024-02-16T10:56:37;0.25;;;0.25;;
58685;SDS011;44465;53.206;-6.106;2024-02-16T10:59:05;0.10;;;0.10;;
58685;SDS011;44465;53.206;-6.106;2024-02-16T11:01:40;0.10;;;0.10;;
58685;SDS011;44465;53.206;-6.106;2024-02-16T11:04:08;0.38;;;0.17;;
58685;SDS011;44465;53.206;-6.106;2024-02-16T11:06:53;0.10;;;0.10;;
58685;SDS011;44465;53.206;-6.106;2024-02-16T11:09:34;0.15;;;0.15;;
58685;SDS011;44465;53.206;-6.106;2024-02-16T11:12:05;0.20;;;0.20;;
58685;SDS011;44465;53.206;-6.106;2024-02-16T11:14:47;0.10;;;0.10;;
58685;SDS011;44465;53.206;-6.106;2024-02-16T11:17:20;0.30;;;0.10;;
58685;SDS011;44465;53.206;-6.106;2024-02-16T11:19:47;0.20;;;0.20;;
58685;SDS011;44465;53.206;-6.106;2024-02-16T11:22:17;0.17;;;0.17;;
58685;SDS011;44465;53.206;-6.106;2024-02-16T11:24:45;0.20;;;0.20;;
58685;SDS011;44465;53.206;-6.106;2024-02-16T11:27:11;0.17;;;0.17;;
58685;SDS011;44465;53.206;-6.106;2024-02-16T11:29:38;0.10;;;0.10;;
58685;SDS011;44465;53.206;-6.106;2024-02-16T11:32:04;0.10;;;0.10;;
58685;SDS011;44465;53.206;-6.106;2024-02-16T11:34:30;0.20;;;0.20;;
58685;SDS011;44465;53.206;-6.106;2024-02-16T11:36:57;0.20;;;0.20;;
58685;SDS011;44465;53.206;-6.106;2024-02-16T11:39:24;0.20;;;0.20;;
58685;SDS011;44465;53.206;-6.106;2024-02-16T11:42:10;0.20;;;0.20;;
58685;SDS011;44465;53.206;-6.106;2024-02-16T11:44:37;0.20;;;0.20;;
58685;SDS011;44465;53.206;-6.106;2024-02-16T11:47:06;0.30;;;0.30;;
58685;SDS011;44465;53.206;-6.106;2024-02-16T11:49:37;0.10;;;0.10;;
58685;SDS011;44465;53.206;-6.106;2024-02-16T11:52:04;0.68;;;0.30;;
58685;SDS011;44465;53.206;-6.106;2024-02-16T11:54:30;0.10;;;0.10;;
58685;SDS011;44465;53.206;-6.106;2024-02-16T11:56:56;0.20;;;0.20;;
58685;SDS011;44465;53.206;-6.106;2024-02-16T11:59:22;0.20;;;0.20;;
58685;SDS011;44465;53.206;-6.106;2024-02-16T12:01:48;0.20;;;0.20;;
58685;SDS011;44465;53.206;-6.106;2024-02-16T12:04:23;0.10;;;0.10;;
58685;SDS011;44465;53.206;-6.106;2024-02-16T12:06:59;0.20;;;0.20;;
58685;SDS011;44465;53.206;-6.106;2024-02-16T12:09:27;0.15;;;0.15;;
58685;SDS011;44465;53.206;-6.106;2024-02-16T12:11:53;0.20;;;0.20;;
58685;SDS011;44465;53.206;-6.106;2024-02-16T12:14:23;0.20;;;0.20;;
58685;SDS011;44465;53.206;-6.106;2024-02-16T12:16:49;0.30;;;0.28;;
58685;SDS011;44465;53.206;-6.106;2024-02-16T12:19:21;0.30;;;0.30;;
58685;SDS011;44465;53.206;-6.106;2024-02-16T12:21:51;0.20;;;0.20;;
58685;SDS011;44465;53.206;-6.106;2024-02-16T12:24:21;0.32;;;0.17;;
58685;SDS011;44465;53.206;-6.106;2024-02-16T12:26:47;0.20;;;0.20;;
58685;SDS011;44465;53.206;-6.106;2024-02-16T12:29:13;0.22;;;0.22;;
58685;SDS011;44465;53.206;-6.106;2024-02-16T12:31:39;0.30;;;0.20;;
58685;SDS011;44465;53.206;-6.106;2024-02-16T12:34:06;0.40;;;0.40;;
58685;SDS011;44465;53.206;-6.106;2024-02-16T12:36:33;0.35;;;0.30;;
58685;SDS011;44465;53.206;-6.106;2024-02-16T12:39:02;0.20;;;0.20;;
58685;SDS011;44465;53.206;-6.106;2024-02-16T12:41:29;0.23;;;0.23;;
58685;SDS011;44465;53.206;-6.106;2024-02-16T12:43:55;0.73;;;0.20;;
58685;SDS011;44465;53.206;-6.106;2024-02-16T12:46:20;0.20;;;0.20;;
58685;SDS011;44465;53.206;-6.106;2024-02-16T12:48:46;0.20;;;0.20;;
58685;SDS011;44465;53.206;-6.106;2024-02-16T12:51:11;0.20;;;0.20;;
58685;SDS011;44465;53.206;-6.106;2024-02-16T12:53:37;0.20;;;0.20;;
58685;SDS011;44465;53.206;-6.106;2024-02-16T12:56:09;0.30;;;0.30;;
58685;SDS011;44465;53.206;-6.106;2024-02-16T12:58:35;0.47;;;0.43;;
58685;SDS011;44465;53.206;-6.106;2024-02-16T13:01:05;0.30;;;0.30;;
58685;SDS011;44465;53.206;-6.106;2024-02-16T13:03:34;0.20;;;0.20;;
58685;SDS011;44465;53.206;-6.106;2024-02-16T13:06:01;0.73;;;0.20;;
58685;SDS011;44465;53.206;-6.106;2024-02-16T13:08:29;0.47;;;0.45;;
58685;SDS011;44465;53.206;-6.106;2024-02-16T13:10:58;0.28;;;0.20;;
58685;SDS011;44465;53.206;-6.106;2024-02-16T13:13:24;0.35;;;0.30;;
58685;SDS011;44465;53.206;-6.106;2024-02-16T13:15:51;0.20;;;0.20;;
58685;SDS011;44465;53.206;-6.106;2024-02-16T13:18:17;0.20;;;0.20;;
58685;SDS011;44465;53.206;-6.106;2024-02-16T13:20:43;0.20;;;0.20;;
58685;SDS011;44465;53.206;-6.106;2024-02-16T13:23:09;0.30;;;0.20;;
58685;SDS011;44465;53.206;-6.106;2024-02-16T13:25:35;0.38;;;0.38;;
58685;SDS011;44465;53.206;-6.106;2024-02-16T13:28:01;0.25;;;0.25;;
58685;SDS011;44465;53.206;-6.106;2024-02-16T13:30:28;0.20;;;0.20;;
58685;SDS011;44465;53.206;-6.106;2024-02-16T13:32:54;0.50;;;0.40;;
58685;SDS011;44465;53.206;-6.106;2024-02-16T13:35:19;0.35;;;0.30;;
58685;SDS011;44465;53.206;-6.106;2024-02-16T13:37:45;0.45;;;0.30;;
58685;SDS011;44465;53.206;-6.106;2024-02-16T13:40:11;0.20;;;0.20;;
58685;SDS011;44465;53.206;-6.106;2024-02-16T13:42:40;0.47;;;0.40;;
58685;SDS011;44465;53.206;-6.106;2024-02-16T13:45:06;0.22;;;0.20;;
58685;SDS011;44465;53.206;-6.106;2024-02-16T13:47:33;0.35;;;0.28;;
58685;SDS011;44465;53.206;-6.106;2024-02-16T13:49:58;0.20;;;0.20;;
58685;SDS011;44465;53.206;-6.106;2024-02-16T13:52:25;0.38;;;0.38;;
58685;SDS011;44465;53.206;-6.106;2024-02-16T13:54:51;0.20;;;0.20;;
58685;SDS011;44465;53.206;-6.106;2024-02-16T13:57:17;0.75;;;0.52;;
58685;SDS011;44465;53.206;-6.106;2024-02-16T13:59:44;0.20;;;0.20;;
58685;SDS011;44465;53.206;-6.106;2024-02-16T14:02:10;0.60;;;0.32;;
58685;SDS011;44465;53.206;-6.106;2024-02-16T14:04:37;0.30;;;0.20;;
58685;SDS011;44465;53.206;-6.106;2024-02-16T14:09:30;0.20;;;0.20;;
58685;SDS011;44465;53.206;-6.106;2024-02-16T14:11:55;0.60;;;0.30;;
58685;SDS011;44465;53.206;-6.106;2024-02-16T14:14:24;0.30;;;0.30;;
58685;SDS011;44465;53.206;-6.106;2024-02-16T14:16:50;0.40;;;0.20;;
58685;SDS011;44465;53.206;-6.106;2024-02-16T14:19:15;0.47;;;0.47;;
58685;SDS011;44465;53.206;-6.106;2024-02-16T14:21:42;0.30;;;0.30;;
58685;SDS011;44465;53.206;-6.106;2024-02-16T14:24:08;1.25;;;0.40;;
58685;SDS011;44465;53.206;-6.106;2024-02-16T14:26:36;0.73;;;0.40;;
58685;SDS011;44465;53.206;-6.106;2024-02-16T14:29:01;0.30;;;0.30;;
58685;SDS011;44465;53.206;-6.106;2024-02-16T14:31:27;0.30;;;0.30;;
58685;SDS011;44465;53.206;-6.106;2024-02-16T14:33:52;0.70;;;0.50;;
58685;SDS011;44465;53.206;-6.106;2024-02-16T14:36:19;2.15;;;0.43;;
58685;SDS011;44465;53.206;-6.106;2024-02-16T14:38:45;1.20;;;0.38;;
58685;SDS011;44465;53.206;-6.106;2024-02-16T14:41:13;0.93;;;0.38;;
58685;SDS011;44465;53.206;-6.106;2024-02-16T14:43:41;1.33;;;0.50;;
58685;SDS011;44465;53.206;-6.106;2024-02-16T14:46:08;0.50;;;0.50;;
58685;SDS011;44465;53.206;-6.106;2024-02-16T14:48:34;0.68;;;0.50;;